createdAt,value
2023-02-19T00:00:25.237Z,14.50
2023-02-19T00:02:56.116Z,14.50
2023-02-19T00:05:25.514Z,13.47
2023-02-19T00:07:54.949Z,13.47
2023-02-19T00:10:24.387Z,16.10
2023-02-19T00:12:56.438Z,14.50
2023-02-19T00:15:25.912Z,15.00
2023-02-19T00:17:55.350Z,15.13
2023-02-19T00:20:24.831Z,13.57
2023-02-19T00:22:54.274Z,14.57
2023-02-19T00:25:23.698Z,18.03
2023-02-19T00:27:55.745Z,16.80
2023-02-19T00:30:25.870Z,12.93
2023-02-19T00:32:55.504Z,11.30
2023-02-19T00:35:25.280Z,13.77
2023-02-19T00:37:54.673Z,13.97
2023-02-19T00:40:26.103Z,12.27
2023-02-19T00:42:58.797Z,13.30
2023-02-19T00:45:28.464Z,14.15
2023-02-19T00:47:57.973Z,11.67
2023-02-19T00:50:27.635Z,15.20
2023-02-19T00:52:57.125Z,14.60
2023-02-19T00:55:26.545Z,17.20
2023-02-19T00:57:58.566Z,16.17
2023-02-19T01:00:27.982Z,17.95
2023-02-19T01:02:57.408Z,16.10
2023-02-19T01:05:28.610Z,15.37
2023-02-19T01:07:58.026Z,18.57
2023-02-19T01:10:27.613Z,19.10
2023-02-19T01:12:59.617Z,18.17
2023-02-19T01:15:29.043Z,17.38
2023-02-19T01:17:58.433Z,19.87
2023-02-19T01:20:28.252Z,19.90
2023-02-19T01:22:58.049Z,19.23
2023-02-19T01:25:27.458Z,20.83
2023-02-19T01:27:59.408Z,18.27
2023-02-19T01:30:28.819Z,18.42
2023-02-19T01:32:58.319Z,18.73
2023-02-19T01:35:28.013Z,18.37
2023-02-19T01:37:57.486Z,19.20
2023-02-19T01:40:27.505Z,14.43
2023-02-19T01:42:59.470Z,14.90
2023-02-19T01:45:31.480Z,9.65
2023-02-19T01:48:06.851Z,8.48
2023-02-19T01:50:41.428Z,5.77
2023-02-19T01:53:12.569Z,7.67
2023-02-19T01:55:43.306Z,5.53
2023-02-19T01:58:15.515Z,4.13
2023-02-19T02:00:45.287Z,3.63
2023-02-19T02:03:16.242Z,2.53
2023-02-19T02:05:53.106Z,3.40
2023-02-19T02:08:35.560Z,4.10
2023-02-19T02:11:06.048Z,4.75
2023-02-19T02:13:40.418Z,2.00
2023-02-19T02:16:23.131Z,3.23
2023-02-19T02:19:01.911Z,2.65
2023-02-19T02:21:56.160Z,3.47
2023-02-19T02:24:44.253Z,4.23
2023-02-19T02:27:41.950Z,5.27
2023-02-19T02:30:32.241Z,5.80
2023-02-19T02:33:09.125Z,3.30
2023-02-19T02:35:46.509Z,5.20
2023-02-19T02:38:17.939Z,4.57
2023-02-19T02:40:48.096Z,5.80
2023-02-19T02:43:18.553Z,4.93
2023-02-19T02:45:50.814Z,7.17
2023-02-19T02:48:46.137Z,7.23
2023-02-19T02:51:22.984Z,7.47
2023-02-19T02:54:16.889Z,8.73
2023-02-19T02:56:49.291Z,10.37
2023-02-19T02:59:22.641Z,13.02
2023-02-19T03:02:10.744Z,13.97
2023-02-19T03:05:03.177Z,13.20
2023-02-19T03:10:10.591Z,14.75
2023-02-19T03:12:55.960Z,15.67
2023-02-19T03:15:42.820Z,15.10
2023-02-19T03:18:29.272Z,15.53
2023-02-19T03:21:01.253Z,15.50
2023-02-19T03:23:48.363Z,15.88
2023-02-19T03:26:20.804Z,11.87
2023-02-19T03:29:08.662Z,7.77
2023-02-19T03:31:42.700Z,6.57
2023-02-19T03:34:19.966Z,4.15
2023-02-19T03:36:56.746Z,2.00
2023-02-19T03:39:27.299Z,2.57
2023-02-19T03:42:05.184Z,2.67
2023-02-19T03:44:43.481Z,1.70
2023-02-19T03:47:19.791Z,1.33
2023-02-19T03:49:57.673Z,1.50
2023-02-19T03:52:40.013Z,2.03
2023-02-19T03:55:14.317Z,2.45
2023-02-19T03:57:52.269Z,1.13
2023-02-19T04:00:29.948Z,1.60
2023-02-19T04:03:06.220Z,2.10
2023-02-19T04:05:42.633Z,2.43
2023-02-19T04:08:16.877Z,0.83
2023-02-19T04:10:53.301Z,2.23
2023-02-19T04:13:26.763Z,1.93
2023-02-19T04:16:00.280Z,1.00
2023-02-19T04:18:34.189Z,1.40
2023-02-19T04:21:09.047Z,0.93
2023-02-19T04:23:43.289Z,2.70
2023-02-19T04:26:14.772Z,1.77
2023-02-19T04:28:44.789Z,1.63
2023-02-19T04:31:14.878Z,2.13
2023-02-19T04:33:44.465Z,4.87
2023-02-19T04:36:16.469Z,3.10
2023-02-19T04:38:45.842Z,2.28
2023-02-19T04:41:15.281Z,2.17
2023-02-19T04:43:44.689Z,1.50
2023-02-19T04:46:14.149Z,2.23
2023-02-19T04:48:44.442Z,0.57
2023-02-19T04:51:16.440Z,0.40
2023-02-19T04:53:45.830Z,1.45
2023-02-19T04:56:17.718Z,1.03
2023-02-19T04:58:47.729Z,1.20
2023-02-19T05:01:17.693Z,0.50
2023-02-19T05:03:47.540Z,0.80
2023-02-19T05:06:19.723Z,0.73
2023-02-19T05:08:49.327Z,1.40
2023-02-19T05:11:18.882Z,1.80
2023-02-19T05:13:48.301Z,2.30
2023-02-19T05:16:18.752Z,1.77
2023-02-19T05:18:49.042Z,1.03
2023-02-19T05:21:21.126Z,1.40
2023-02-19T05:23:50.565Z,1.33
2023-02-19T05:26:23.229Z,2.67
2023-02-19T05:28:54.758Z,1.85
2023-02-19T05:31:24.727Z,0.87
2023-02-19T05:33:54.317Z,0.67
2023-02-19T05:36:26.847Z,0.60
2023-02-19T05:38:57.740Z,1.48
2023-02-19T05:41:29.052Z,1.80
2023-02-19T05:43:59.674Z,2.13
2023-02-19T05:46:31.078Z,1.27
2023-02-19T05:49:01.183Z,1.33
2023-02-19T05:51:33.263Z,1.77
2023-02-19T05:54:02.734Z,2.17
2023-02-19T05:56:37.098Z,2.37
2023-02-19T05:59:09.721Z,2.00
2023-02-19T06:01:39.615Z,3.72
2023-02-19T06:04:09.426Z,2.63
2023-02-19T06:06:41.669Z,2.13
2023-02-19T06:09:12.372Z,1.02
2023-02-19T06:11:43.458Z,2.10
2023-02-19T06:14:14.950Z,2.50
2023-02-19T06:16:44.708Z,1.27
2023-02-19T06:19:14.217Z,2.57
2023-02-19T06:21:46.700Z,1.87
2023-02-19T06:24:16.445Z,3.22
2023-02-19T06:26:46.598Z,1.63
2023-02-19T06:29:16.043Z,2.80
2023-02-19T06:31:46.255Z,5.23
2023-02-19T06:34:15.902Z,3.13
2023-02-19T06:36:48.116Z,2.40
2023-02-19T06:39:17.697Z,1.98
2023-02-19T06:41:47.588Z,2.77
2023-02-19T06:44:17.130Z,1.97
2023-02-19T06:46:46.651Z,1.23
2023-02-19T06:49:16.205Z,1.20
2023-02-19T06:51:48.207Z,2.63
2023-02-19T06:54:17.725Z,3.55
2023-02-19T06:56:47.426Z,2.93
2023-02-19T06:59:19.507Z,4.20
2023-02-19T07:01:49.284Z,3.13
2023-02-19T07:04:19.069Z,2.57
2023-02-19T07:06:51.207Z,3.43
2023-02-19T07:09:20.675Z,2.97
2023-02-19T07:11:50.237Z,3.33
2023-02-19T07:14:20.974Z,4.00
2023-02-19T07:16:51.300Z,2.17
2023-02-19T07:19:20.813Z,1.83
2023-02-19T07:21:52.799Z,2.37
2023-02-19T07:24:22.766Z,4.38
2023-02-19T07:26:52.120Z,5.37
2023-02-19T07:29:21.659Z,4.73
2023-02-19T07:31:51.161Z,1.97
2023-02-19T07:34:20.917Z,3.53
2023-02-19T07:36:52.939Z,3.07
2023-02-19T07:39:22.475Z,3.90
2023-02-19T07:41:51.868Z,5.47
2023-02-19T07:44:29.004Z,3.07
2023-02-19T07:46:58.488Z,5.43
2023-02-19T07:49:28.768Z,6.20
2023-02-19T07:52:00.896Z,4.37
2023-02-19T07:54:30.822Z,7.43
2023-02-19T07:57:00.353Z,7.40
2023-02-19T07:59:29.793Z,6.80
2023-02-19T08:02:11.746Z,7.83
2023-02-19T08:04:41.505Z,7.60
2023-02-19T08:07:13.534Z,8.33
2023-02-19T08:09:43.069Z,8.88
2023-02-19T08:12:26.788Z,10.20
2023-02-19T08:14:56.241Z,6.57
2023-02-19T08:17:26.443Z,7.50
2023-02-19T08:19:56.190Z,7.97
2023-02-19T08:22:28.533Z,9.00
2023-02-19T08:24:58.182Z,8.80
2023-02-19T08:27:27.717Z,8.07
2023-02-19T08:29:57.214Z,9.00
2023-02-19T08:32:26.621Z,8.63
2023-02-19T08:34:56.036Z,8.73
2023-02-19T08:37:28.181Z,9.60
2023-02-19T08:39:57.669Z,9.38
2023-02-19T08:42:27.192Z,8.53
2023-02-19T08:44:56.743Z,8.53
2023-02-19T08:47:26.293Z,10.00
2023-02-19T08:49:55.754Z,10.10
2023-02-19T08:52:27.821Z,6.87
2023-02-19T08:54:57.326Z,10.00
2023-02-19T08:57:28.111Z,8.37
2023-02-19T08:59:57.644Z,9.00
2023-02-19T09:02:27.881Z,9.17
2023-02-19T09:04:57.444Z,10.50
2023-02-19T09:07:30.041Z,11.23
2023-02-19T09:09:59.497Z,10.50
2023-02-19T09:12:29.677Z,10.80
2023-02-19T09:14:59.352Z,10.53
2023-02-19T09:17:28.844Z,9.20
2023-02-19T09:19:58.283Z,11.43
2023-02-19T09:22:30.243Z,11.53
2023-02-19T09:24:59.659Z,14.15
2023-02-19T09:27:31.734Z,17.83
2023-02-19T09:30:01.345Z,16.10
2023-02-19T09:32:33.697Z,14.90
2023-02-19T09:35:03.108Z,14.50
2023-02-19T09:37:35.154Z,15.80
2023-02-19T09:40:04.602Z,18.13
2023-02-19T09:42:35.895Z,16.13
2023-02-19T09:45:08.023Z,18.27
2023-02-19T09:47:37.709Z,16.60
2023-02-19T09:50:10.843Z,15.67
2023-02-19T09:52:48.458Z,16.57
2023-02-19T09:55:20.753Z,16.33
2023-02-19T09:57:51.082Z,15.52
2023-02-19T10:00:25.335Z,18.03
2023-02-19T10:02:57.834Z,14.17
2023-02-19T10:05:28.821Z,14.30
2023-02-19T10:08:01.494Z,11.57
2023-02-19T10:13:14.023Z,10.53
2023-02-19T10:15:49.619Z,9.07
2023-02-19T10:18:21.428Z,8.20
2023-02-19T10:20:52.394Z,11.93
2023-02-19T10:23:25.078Z,9.07
2023-02-19T10:25:57.235Z,10.05
2023-02-19T10:28:31.259Z,10.32
2023-02-19T10:31:02.563Z,8.70
2023-02-19T10:33:32.254Z,8.37
2023-02-19T10:36:04.045Z,7.43
2023-02-19T10:38:38.156Z,7.47
2023-02-19T10:41:10.493Z,6.63
2023-02-19T10:43:42.855Z,10.95
2023-02-19T10:46:20.238Z,6.55
2023-02-19T10:48:54.967Z,5.07
2023-02-19T10:51:33.200Z,6.53
2023-02-19T10:54:20.177Z,6.27
2023-02-19T10:56:49.721Z,5.67
2023-02-19T10:59:27.257Z,5.73
2023-02-19T11:01:57.999Z,5.73
2023-02-19T11:04:29.231Z,7.07
2023-02-19T11:06:59.461Z,6.63
2023-02-19T11:09:40.309Z,5.97
2023-02-19T11:12:11.336Z,4.10
2023-02-19T11:14:45.221Z,4.83
2023-02-19T11:17:26.477Z,7.20
2023-02-19T11:19:57.748Z,6.60
2023-02-19T11:22:34.113Z,5.43
2023-02-19T11:25:10.303Z,8.97
2023-02-19T11:27:56.410Z,6.03
2023-02-19T11:30:45.198Z,6.50
2023-02-19T11:33:28.929Z,8.33
2023-02-19T11:36:19.697Z,4.53
2023-02-19T11:38:49.218Z,7.70
2023-02-19T11:41:32.646Z,4.60
2023-02-19T11:44:17.112Z,8.00
2023-02-19T11:46:56.944Z,6.87
2023-02-19T11:49:38.433Z,7.77
2023-02-19T11:52:19.817Z,4.17
2023-02-19T11:54:54.625Z,6.00
2023-02-19T11:57:43.154Z,5.57
2023-02-19T12:00:27.109Z,6.43
2023-02-19T12:03:28.222Z,3.83
2023-02-19T12:06:11.665Z,8.00
2023-02-19T12:09:00.938Z,5.77
2023-02-19T12:11:47.463Z,4.47
2023-02-19T12:14:48.094Z,4.17
2023-02-19T12:17:29.524Z,3.77
2023-02-19T12:20:13.228Z,5.60
2023-02-19T12:22:48.594Z,6.90
2023-02-19T12:25:44.747Z,5.03
2023-02-19T12:28:34.251Z,7.57
2023-02-19T12:31:28.053Z,3.37
2023-02-19T12:34:24.972Z,5.20
2023-02-19T12:37:06.077Z,4.40
2023-02-19T12:39:42.804Z,8.10
2023-02-19T12:42:23.420Z,5.53
2023-02-19T12:44:57.752Z,5.27
2023-02-19T12:47:34.873Z,5.50
2023-02-19T12:50:10.949Z,7.07
2023-02-19T12:52:46.337Z,2.93
2023-02-19T12:55:23.910Z,6.33
2023-02-19T12:57:54.157Z,3.28
2023-02-19T13:00:35.097Z,5.20
2023-02-19T13:03:17.730Z,5.97
2023-02-19T13:05:52.578Z,8.00
2023-02-19T13:08:29.199Z,5.63
2023-02-19T13:11:03.612Z,4.03
2023-02-19T13:13:38.591Z,3.70
2023-02-19T13:16:15.110Z,5.47
2023-02-19T13:18:57.643Z,4.53
2023-02-19T13:21:42.843Z,2.50
2023-02-19T13:27:20.553Z,3.05
2023-02-19T13:30:09.823Z,4.25
2023-02-19T13:32:56.748Z,4.70
2023-02-19T13:35:55.759Z,5.35
2023-02-19T13:38:26.049Z,6.10
2023-02-19T13:40:57.063Z,3.42
2023-02-19T13:43:29.420Z,4.47
2023-02-19T13:46:05.457Z,3.33
2023-02-19T13:48:37.086Z,3.55
2023-02-19T13:51:52.104Z,5.15
2023-02-19T13:54:30.215Z,5.17
2023-02-19T13:57:29.200Z,6.43
2023-02-19T14:00:00.213Z,5.10
2023-02-19T14:02:35.245Z,4.77
2023-02-19T14:05:08.941Z,7.27
2023-02-19T14:07:57.094Z,4.80
2023-02-19T14:11:05.163Z,5.97
2023-02-19T14:14:06.894Z,2.97
2023-02-19T14:16:52.863Z,4.03
2023-02-19T14:19:51.505Z,6.90
2023-02-19T14:23:02.887Z,4.23
2023-02-19T14:25:38.306Z,2.20
2023-02-19T14:28:16.177Z,4.67
2023-02-19T14:30:52.087Z,5.40
2023-02-19T14:33:24.780Z,7.23
2023-02-19T14:35:58.152Z,5.07
2023-02-19T14:38:31.178Z,4.03
2023-02-19T14:41:01.342Z,4.13
2023-02-19T14:43:32.140Z,6.37
2023-02-19T14:46:10.107Z,5.23
2023-02-19T14:48:44.385Z,5.87
2023-02-19T14:51:19.061Z,7.00
2023-02-19T14:53:49.070Z,4.57
2023-02-19T14:56:23.952Z,3.50
2023-02-19T14:59:09.847Z,6.60
2023-02-19T15:01:42.655Z,7.07
2023-02-19T15:06:56.703Z,5.07
2023-02-19T15:12:02.795Z,5.07
2023-02-19T15:14:33.358Z,6.67
2023-02-19T15:17:07.956Z,5.47
2023-02-19T15:19:39.694Z,4.07
2023-02-19T15:22:09.141Z,8.18
2023-02-19T15:24:38.909Z,6.97
2023-02-19T15:27:08.417Z,5.60
2023-02-19T15:29:47.262Z,6.27
2023-02-19T15:32:24.031Z,6.57
2023-02-19T15:34:58.628Z,8.10
2023-02-19T15:37:31.198Z,8.33
2023-02-19T15:40:03.008Z,7.75
2023-02-19T15:42:34.994Z,6.77
2023-02-19T15:45:08.383Z,6.50
2023-02-19T15:47:43.495Z,8.17
2023-02-19T15:50:19.156Z,7.07
2023-02-19T15:52:53.069Z,7.80
2023-02-19T15:55:31.359Z,8.97
2023-02-19T15:58:08.638Z,7.30
2023-02-19T16:00:43.202Z,8.47
2023-02-19T16:03:21.591Z,10.13
2023-02-19T16:06:04.442Z,9.53
2023-02-19T16:08:35.155Z,9.40
2023-02-19T16:11:07.301Z,12.10
2023-02-19T16:13:37.769Z,12.10
2023-02-19T16:16:16.976Z,8.93
2023-02-19T16:18:54.408Z,11.27
2023-02-19T16:21:26.387Z,9.83
2023-02-19T16:24:07.735Z,10.15
2023-02-19T16:26:42.758Z,11.00
2023-02-19T16:29:22.065Z,9.20
2023-02-19T16:31:53.511Z,10.17
2023-02-19T16:34:34.480Z,11.03
2023-02-19T16:37:05.189Z,11.70
2023-02-19T16:39:35.157Z,12.60
2023-02-19T16:42:17.269Z,11.37
2023-02-19T16:44:47.584Z,12.48
2023-02-19T16:47:23.296Z,10.27
2023-02-19T16:49:55.686Z,13.17
2023-02-19T16:52:25.139Z,10.30
2023-02-19T16:54:54.495Z,10.67
2023-02-19T16:57:23.900Z,11.73
2023-02-19T16:59:53.302Z,10.80
2023-02-19T17:02:26.695Z,12.37
2023-02-19T17:04:58.930Z,11.23
2023-02-19T17:07:28.605Z,14.18
2023-02-19T17:09:57.993Z,11.00
2023-02-19T17:12:27.381Z,10.67
2023-02-19T17:14:56.807Z,10.60
2023-02-19T17:17:26.220Z,13.13
2023-02-19T17:19:58.274Z,11.10
2023-02-19T17:22:27.759Z,12.73
2023-02-19T17:24:57.168Z,11.73
2023-02-19T17:27:26.600Z,10.97
2023-02-19T17:29:56.160Z,12.53
2023-02-19T17:32:25.662Z,13.37
2023-02-19T17:34:57.714Z,12.63
2023-02-19T17:37:27.284Z,12.02
2023-02-19T17:39:56.672Z,12.73
2023-02-19T17:42:26.205Z,15.83
2023-02-19T17:44:55.673Z,13.97
2023-02-19T17:47:25.110Z,14.37
2023-02-19T17:49:55.700Z,13.17
2023-02-19T17:52:29.346Z,12.73
2023-02-19T17:54:58.739Z,12.40
2023-02-19T17:57:33.398Z,12.30
2023-02-19T18:00:04.573Z,11.83
2023-02-19T18:02:41.932Z,13.57
2023-02-19T18:05:11.805Z,11.60
2023-02-19T18:07:43.750Z,14.30
2023-02-19T18:10:13.924Z,12.32
2023-02-19T18:12:43.285Z,11.33
2023-02-19T18:15:18.557Z,13.20
2023-02-19T18:17:48.074Z,14.00
2023-02-19T18:20:18.874Z,11.77
2023-02-19T18:22:50.822Z,14.07
2023-02-19T18:25:22.137Z,13.88
2023-02-19T18:27:52.160Z,14.80
2023-02-19T18:30:22.985Z,13.60
2023-02-19T18:32:53.522Z,14.10
2023-02-19T18:35:23.834Z,16.10
2023-02-19T18:37:56.894Z,15.90
2023-02-19T18:40:28.722Z,14.20
2023-02-19T18:42:58.845Z,15.10
2023-02-19T18:45:29.768Z,15.10
2023-02-19T18:47:59.257Z,14.23
2023-02-19T18:50:28.726Z,21.03
2023-02-19T18:53:00.727Z,14.83
2023-02-19T18:55:30.252Z,15.27
2023-02-19T18:57:59.671Z,12.40
2023-02-19T19:00:29.158Z,14.07
2023-02-19T19:02:59.686Z,14.57
2023-02-19T19:05:29.853Z,11.97
2023-02-19T19:08:01.946Z,12.47
2023-02-19T19:10:32.270Z,12.82
2023-02-19T19:13:02.414Z,13.10
2023-02-19T19:15:31.945Z,14.37
2023-02-19T19:18:02.793Z,14.70
2023-02-19T19:20:32.322Z,14.13
2023-02-19T19:23:04.913Z,13.27
2023-02-19T19:25:34.377Z,14.30
2023-02-19T19:28:03.902Z,15.10
2023-02-19T19:30:33.894Z,13.77
2023-02-19T19:33:03.655Z,14.23
2023-02-19T19:35:33.045Z,13.10
2023-02-19T19:38:05.446Z,15.33
2023-02-19T19:40:34.925Z,14.25
2023-02-19T19:43:05.960Z,13.40
2023-02-19T19:45:35.423Z,12.50
2023-02-19T19:48:05.778Z,15.20
2023-02-19T19:50:35.251Z,13.10
2023-02-19T19:53:07.272Z,13.10
2023-02-19T19:55:36.689Z,11.65
2023-02-19T19:58:06.199Z,12.00
2023-02-19T20:00:35.594Z,12.70
2023-02-19T20:03:05.618Z,13.00
2023-02-19T20:05:35.251Z,13.97
2023-02-19T20:08:07.754Z,12.53
2023-02-19T20:10:37.145Z,13.38
2023-02-19T20:13:06.974Z,13.37
2023-02-19T20:15:36.524Z,13.37
2023-02-19T20:18:06.303Z,14.33
2023-02-19T20:20:35.986Z,15.70
2023-02-19T20:23:08.108Z,13.83
2023-02-19T20:25:38.014Z,14.40
2023-02-19T20:28:07.954Z,13.97
2023-02-19T20:30:37.733Z,14.00
2023-02-19T20:33:07.428Z,15.70
2023-02-19T20:35:36.926Z,15.60
2023-02-19T20:38:09.392Z,14.00
2023-02-19T20:40:38.890Z,12.43
2023-02-19T20:43:08.511Z,13.67
2023-02-19T20:45:37.920Z,13.20
2023-02-19T20:48:07.422Z,15.30
2023-02-19T20:50:36.861Z,14.40
2023-02-19T20:53:09.079Z,13.93
2023-02-19T20:55:38.586Z,13.02
2023-02-19T20:58:08.872Z,13.73
2023-02-19T21:00:38.397Z,12.80
2023-02-19T21:03:09.098Z,12.40
2023-02-19T21:05:39.928Z,11.97
2023-02-19T21:08:14.106Z,12.00
2023-02-19T21:10:43.653Z,13.40
2023-02-19T21:13:13.088Z,12.73
2023-02-19T21:15:42.758Z,12.50
2023-02-19T21:18:12.366Z,12.67
2023-02-19T21:20:41.807Z,12.27
2023-02-19T21:23:13.998Z,14.80
2023-02-19T21:25:43.393Z,13.38
2023-02-19T21:28:13.293Z,11.63
2023-02-19T21:30:42.889Z,12.40
2023-02-19T21:33:12.732Z,11.50
2023-02-19T21:35:42.230Z,12.67
2023-02-19T21:38:14.248Z,13.60
2023-02-19T21:40:43.722Z,13.75
2023-02-19T21:43:13.085Z,11.50
2023-02-19T21:45:42.821Z,12.40
2023-02-19T21:48:12.322Z,12.87
2023-02-19T21:50:45.449Z,14.83
2023-02-19T21:53:18.277Z,13.10
2023-02-19T21:58:28.395Z,14.27
2023-02-19T22:00:58.271Z,12.40
2023-02-19T22:03:27.773Z,13.70
2023-02-19T22:05:57.469Z,15.50
2023-02-19T22:08:31.850Z,13.37
2023-02-19T22:11:02.371Z,14.33
2023-02-19T22:13:31.786Z,17.00
2023-02-19T22:16:02.331Z,14.53
2023-02-19T22:18:31.854Z,13.70
2023-02-19T22:21:02.340Z,13.47
2023-02-19T22:23:34.633Z,15.43
2023-02-19T22:26:04.110Z,14.80
2023-02-19T22:28:33.589Z,14.90
2023-02-19T22:31:03.033Z,14.30
2023-02-19T22:33:32.487Z,13.60
2023-02-19T22:36:02.334Z,15.03
2023-02-19T22:38:34.786Z,14.70
2023-02-19T22:41:05.282Z,15.23
2023-02-19T22:43:34.684Z,14.37
2023-02-19T22:46:05.112Z,12.63
2023-02-19T22:48:34.584Z,15.93
2023-02-19T22:51:04.072Z,14.33
2023-02-19T22:53:36.144Z,14.30
2023-02-19T22:56:05.736Z,15.82
2023-02-19T22:58:35.129Z,13.30
2023-02-19T23:01:04.574Z,14.33
2023-02-19T23:03:34.056Z,15.60
2023-02-19T23:06:05.867Z,15.70
2023-02-19T23:08:37.850Z,15.10
2023-02-19T23:11:07.294Z,13.98
2023-02-19T23:13:36.726Z,14.90
2023-02-19T23:16:06.698Z,14.53
2023-02-19T23:18:36.190Z,15.57
2023-02-19T23:21:05.642Z,13.80
2023-02-19T23:23:35.039Z,16.77
2023-02-19T23:26:08.374Z,16.50
2023-02-19T23:28:37.872Z,14.27
2023-02-19T23:31:07.949Z,14.77
2023-02-19T23:33:37.980Z,14.80
2023-02-19T23:36:08.076Z,13.57
2023-02-19T23:38:37.524Z,15.87
2023-02-19T23:41:11.957Z,14.50
2023-02-19T23:43:41.481Z,14.97
2023-02-19T23:46:12.006Z,14.37
2023-02-19T23:48:41.635Z,13.50
2023-02-19T23:51:11.101Z,15.40
2023-02-19T23:53:40.530Z,15.83
2023-02-19T23:56:12.862Z,15.37
2023-02-19T23:58:42.471Z,13.52
